createdAt,value
2018-09-14T00:00:21.840Z,9.07
2018-09-14T00:02:50.060Z,9.07
2018-09-14T00:05:18.263Z,9.03
2018-09-14T00:07:46.292Z,9.02
2018-09-14T00:10:14.880Z,8.86
2018-09-14T00:12:42.897Z,8.98
2018-09-14T00:15:10.881Z,9.05
2018-09-14T00:17:39.148Z,9.04
2018-09-14T00:20:07.890Z,8.99
2018-09-14T00:22:35.948Z,8.94
2018-09-14T00:25:04.025Z,8.82
2018-09-14T00:27:32.019Z,8.75
2018-09-14T00:29:59.990Z,8.87
2018-09-14T00:32:29.885Z,8.85
2018-09-14T00:34:57.915Z,8.84
2018-09-14T00:37:26.065Z,8.98
2018-09-14T00:39:54.018Z,8.83
2018-09-14T00:42:22.270Z,8.76
2018-09-14T00:44:50.266Z,8.71
2018-09-14T00:47:18.260Z,8.62
2018-09-14T00:49:46.325Z,8.58
2018-09-14T00:52:14.786Z,8.62
2018-09-14T00:54:42.795Z,8.60
2018-09-14T00:57:11.023Z,8.55
2018-09-14T00:59:39.457Z,8.42
2018-09-14T01:02:07.466Z,8.43
2018-09-14T01:04:35.530Z,8.43
2018-09-14T01:07:04.281Z,8.41
2018-09-14T01:09:40.440Z,8.37
2018-09-14T01:12:08.956Z,8.29
2018-09-14T01:17:45.775Z,8.26
2018-09-14T01:20:13.884Z,8.37
2018-09-14T01:22:42.100Z,8.27
2018-09-14T01:25:10.184Z,8.37
2018-09-14T01:27:38.178Z,8.44
2018-09-14T01:30:06.856Z,8.36
2018-09-14T01:32:35.034Z,8.29
2018-09-14T01:35:07.644Z,8.27
2018-09-14T01:37:35.756Z,8.10
2018-09-14T01:40:03.996Z,8.00
2018-09-14T01:42:32.276Z,8.09
2018-09-14T01:45:00.367Z,8.02
2018-09-14T01:47:28.576Z,8.10
2018-09-14T01:49:56.856Z,8.16
2018-09-14T01:52:24.825Z,8.08
2018-09-14T01:54:53.081Z,8.04
2018-09-14T01:57:21.160Z,8.02
2018-09-14T01:59:49.227Z,7.97
2018-09-14T02:02:17.402Z,7.95
2018-09-14T02:04:45.469Z,8.05
2018-09-14T02:07:14.103Z,7.97
2018-09-14T02:09:42.180Z,7.91
2018-09-14T02:12:10.398Z,8.01
2018-09-14T02:14:38.696Z,8.04
2018-09-14T02:17:07.216Z,8.00
2018-09-14T02:19:35.285Z,7.93
2018-09-14T02:22:03.517Z,7.88
2018-09-14T02:24:31.796Z,7.83
2018-09-14T02:26:59.790Z,7.67
2018-09-14T02:29:27.768Z,7.60
2018-09-14T02:31:55.773Z,7.57
2018-09-14T02:34:24.188Z,7.63
2018-09-14T02:36:58.808Z,7.75
2018-09-14T02:39:26.966Z,7.82
2018-09-14T02:41:54.940Z,7.81
2018-09-14T02:44:23.034Z,7.67
2018-09-14T02:46:51.123Z,7.65
2018-09-14T02:49:19.462Z,7.60
2018-09-14T02:51:47.907Z,7.54
2018-09-14T02:54:16.539Z,7.54
2018-09-14T02:56:44.842Z,7.64
2018-09-14T02:59:12.828Z,7.65
2018-09-14T03:01:41.140Z,7.53
2018-09-14T03:04:09.356Z,7.50
2018-09-14T03:06:37.599Z,7.51
2018-09-14T03:09:07.928Z,7.56
2018-09-14T03:11:36.491Z,7.55
2018-09-14T03:14:04.689Z,7.49
2018-09-14T03:16:32.969Z,7.50
2018-09-14T03:19:01.690Z,7.52
2018-09-14T03:21:30.142Z,7.46
2018-09-14T03:23:58.422Z,7.52
2018-09-14T03:26:26.691Z,7.48
2018-09-14T03:28:54.871Z,7.45
2018-09-14T03:31:23.136Z,7.44
2018-09-14T03:33:51.291Z,7.38
2018-09-14T03:36:19.538Z,7.39
2018-09-14T03:38:48.014Z,7.31
2018-09-14T03:41:16.285Z,7.32
2018-09-14T03:43:44.353Z,7.33
2018-09-14T03:46:12.447Z,7.43
2018-09-14T03:48:40.665Z,7.28
2018-09-14T03:51:09.045Z,7.41
2018-09-14T03:53:37.265Z,7.47
2018-09-14T03:56:05.354Z,7.41
2018-09-14T03:58:33.499Z,7.32
2018-09-14T04:01:01.802Z,7.39
2018-09-14T04:03:29.833Z,7.45
2018-09-14T04:05:58.140Z,7.42
2018-09-14T04:08:26.276Z,7.46
2018-09-14T04:10:54.590Z,7.53
2018-09-14T04:13:22.856Z,7.66
2018-09-14T04:15:51.067Z,7.66
2018-09-14T04:18:19.129Z,7.78
2018-09-14T04:20:47.408Z,7.83
2018-09-14T04:23:15.871Z,7.79
2018-09-14T04:25:43.869Z,7.77
2018-09-14T04:28:11.968Z,7.76
2018-09-14T04:30:40.540Z,7.81
2018-09-14T04:33:08.704Z,7.77
2018-09-14T04:35:36.699Z,7.81
2018-09-14T04:38:04.945Z,7.93
2018-09-14T04:40:33.263Z,7.85
2018-09-14T04:43:01.451Z,7.74
2018-09-14T04:45:29.871Z,7.80
2018-09-14T04:47:57.990Z,7.85
2018-09-14T04:50:26.217Z,7.81
2018-09-14T04:52:54.479Z,7.77
2018-09-14T04:55:22.586Z,7.77
2018-09-14T04:57:50.823Z,7.82
2018-09-14T05:00:19.091Z,7.92
2018-09-14T05:02:47.410Z,8.12
2018-09-14T05:05:15.704Z,8.17
2018-09-14T05:07:44.292Z,8.30
2018-09-14T05:10:12.456Z,8.42
2018-09-14T05:12:40.740Z,8.47
2018-09-14T05:15:08.900Z,8.59
2018-09-14T05:17:37.171Z,8.52
2018-09-14T05:20:05.331Z,8.63
2018-09-14T05:22:33.631Z,8.59
2018-09-14T05:25:01.818Z,8.69
2018-09-14T05:27:30.041Z,8.70
2018-09-14T05:29:58.301Z,8.70
2018-09-14T05:32:26.369Z,8.78
2018-09-14T05:34:54.606Z,8.79
2018-09-14T05:37:22.763Z,8.85
2018-09-14T05:39:50.891Z,8.93
2018-09-14T05:42:19.072Z,9.09
2018-09-14T05:44:47.238Z,9.09
2018-09-14T05:47:15.428Z,9.04
2018-09-14T05:49:43.652Z,9.04
2018-09-14T05:52:11.925Z,9.02
2018-09-14T05:54:40.325Z,9.00
2018-09-14T05:57:08.084Z,9.02
2018-09-14T05:59:36.284Z,9.04
2018-09-14T06:02:04.503Z,9.16
2018-09-14T06:04:32.783Z,9.15
2018-09-14T06:07:01.022Z,9.12
2018-09-14T06:09:29.267Z,9.15
2018-09-14T06:11:57.442Z,9.10
2018-09-14T06:14:25.665Z,9.11
2018-09-14T06:16:53.910Z,9.17
2018-09-14T06:19:22.142Z,9.17
2018-09-14T06:21:50.388Z,9.24
2018-09-14T06:24:18.588Z,9.37
2018-09-14T06:26:46.806Z,9.40
2018-09-14T06:29:15.388Z,9.48
2018-09-14T06:31:43.522Z,9.64
2018-09-14T06:34:11.786Z,9.62
2018-09-14T06:36:39.914Z,9.65
2018-09-14T06:39:10.442Z,9.68
2018-09-14T06:41:38.723Z,9.76
2018-09-14T06:44:07.010Z,9.76
2018-09-14T06:46:35.014Z,9.85
2018-09-14T06:49:04.965Z,9.90
2018-09-14T06:51:33.366Z,9.98
2018-09-14T06:54:01.684Z,10.02
2018-09-14T06:56:29.688Z,10.14
2018-09-14T06:58:57.932Z,10.26
2018-09-14T07:01:26.161Z,10.39
2018-09-14T07:03:54.352Z,10.43
2018-09-14T07:06:22.572Z,10.58
2018-09-14T07:08:50.809Z,10.66
2018-09-14T07:11:18.822Z,10.86
2018-09-14T07:13:47.279Z,11.01
2018-09-14T07:16:15.555Z,11.15
2018-09-14T07:18:43.800Z,11.20
2018-09-14T07:21:11.957Z,11.28
2018-09-14T07:23:40.291Z,11.70
2018-09-14T07:26:08.355Z,11.62
2018-09-14T07:28:36.547Z,11.51
2018-09-14T07:31:05.142Z,11.53
2018-09-14T07:33:33.341Z,11.70
2018-09-14T07:36:01.512Z,11.82
2018-09-14T07:38:29.889Z,12.08
2018-09-14T07:40:58.135Z,12.01
2018-09-14T07:43:26.234Z,12.03
2018-09-14T07:45:54.313Z,11.92
2018-09-14T07:48:22.432Z,11.98
2018-09-14T07:50:50.928Z,12.06
2018-09-14T07:53:19.348Z,12.33
2018-09-14T07:55:47.740Z,12.59
2018-09-14T07:58:15.954Z,12.99
2018-09-14T08:00:44.366Z,12.95
2018-09-14T08:03:12.376Z,12.87
2018-09-14T08:05:40.657Z,12.87
2018-09-14T08:08:08.846Z,12.80
2018-09-14T08:10:37.130Z,12.86
2018-09-14T08:13:05.562Z,12.91
2018-09-14T08:15:34.067Z,13.18
2018-09-14T08:18:02.239Z,13.02
2018-09-14T08:20:30.932Z,13.09
2018-09-14T08:22:59.015Z,12.98
2018-09-14T08:25:27.218Z,13.15
2018-09-14T08:27:55.303Z,13.37
2018-09-14T08:30:23.597Z,13.70
2018-09-14T08:32:51.797Z,14.01
2018-09-14T08:35:20.056Z,13.95
2018-09-14T08:37:48.420Z,13.97
2018-09-14T08:40:16.846Z,14.67
2018-09-14T08:42:45.232Z,15.88
2018-09-14T08:45:13.492Z,16.30
2018-09-14T08:47:41.873Z,16.33
2018-09-14T08:50:10.166Z,16.44
2018-09-14T08:52:38.246Z,15.79
2018-09-14T08:55:06.694Z,15.20
2018-09-14T08:57:34.954Z,15.37
2018-09-14T09:00:03.178Z,15.44
2018-09-14T09:02:31.295Z,15.74
2018-09-14T09:04:59.682Z,15.48
2018-09-14T09:07:27.993Z,15.52
2018-09-14T09:09:56.385Z,15.61
2018-09-14T09:12:24.574Z,15.87
2018-09-14T09:14:53.054Z,15.71
2018-09-14T09:17:21.245Z,16.48
2018-09-14T09:19:49.512Z,16.24
2018-09-14T09:22:17.807Z,16.63
2018-09-14T09:24:46.273Z,17.06
2018-09-14T09:27:14.393Z,17.68
2018-09-14T09:29:42.601Z,17.51
2018-09-14T09:32:10.815Z,17.59
2018-09-14T09:34:39.041Z,17.37
2018-09-14T09:37:07.474Z,17.50
2018-09-14T09:39:36.285Z,16.76
2018-09-14T09:42:04.693Z,16.89
2018-09-14T09:44:32.873Z,17.19
2018-09-14T09:47:01.332Z,16.81
2018-09-14T09:49:29.793Z,16.96
2018-09-14T09:51:58.193Z,16.71
2018-09-14T09:54:26.295Z,16.64
2018-09-14T09:56:54.625Z,16.57
2018-09-14T09:59:22.940Z,16.17
2018-09-14T10:01:56.696Z,16.58
2018-09-14T10:05:30.674Z,16.72
2018-09-14T10:07:58.813Z,16.50
2018-09-14T10:10:27.185Z,16.50
2018-09-14T10:12:55.473Z,16.84
2018-09-14T10:15:25.053Z,16.80
2018-09-14T10:17:53.313Z,17.47
2018-09-14T10:20:21.533Z,17.73
2018-09-14T10:22:49.935Z,17.88
2018-09-14T10:25:18.297Z,17.50
2018-09-14T10:27:46.533Z,17.34
2018-09-14T10:30:15.613Z,17.02
2018-09-14T10:32:44.844Z,17.07
2018-09-14T10:35:13.156Z,17.19
2018-09-14T10:37:41.687Z,17.02
2018-09-14T10:40:10.027Z,16.77
2018-09-14T10:42:38.344Z,16.53
2018-09-14T10:45:06.700Z,16.59
2018-09-14T10:47:35.055Z,16.75
2018-09-14T10:50:03.423Z,16.73
2018-09-14T10:52:31.975Z,16.95
2018-09-14T10:55:00.453Z,17.24
2018-09-14T10:57:28.787Z,17.83
2018-09-14T10:59:57.243Z,18.45
2018-09-14T11:02:25.595Z,20.47
2018-09-14T11:04:53.855Z,21.43
2018-09-14T11:07:22.288Z,21.10
2018-09-14T11:09:50.646Z,21.60
2018-09-14T11:12:19.035Z,21.95
2018-09-14T11:14:48.294Z,22.21
2018-09-14T11:17:16.707Z,22.91
2018-09-14T11:19:44.976Z,22.99
2018-09-14T11:22:13.755Z,22.39
2018-09-14T11:24:42.212Z,21.87
2018-09-14T11:27:11.576Z,21.60
2018-09-14T11:29:39.836Z,20.43
2018-09-14T11:32:08.296Z,19.31
2018-09-14T11:34:37.077Z,19.20
2018-09-14T11:37:06.077Z,19.27
2018-09-14T11:39:34.336Z,19.30
2018-09-14T11:42:02.655Z,18.90
2018-09-14T11:44:31.122Z,18.69
2018-09-14T11:46:59.436Z,18.77
2018-09-14T11:49:27.596Z,18.87
2018-09-14T11:51:55.988Z,19.05
2018-09-14T11:54:24.262Z,19.24
2018-09-14T11:56:52.688Z,19.35
2018-09-14T11:59:20.896Z,19.54
2018-09-14T12:01:49.541Z,19.35
2018-09-14T12:04:17.943Z,18.78
2018-09-14T12:06:47.796Z,18.91
2018-09-14T12:09:16.108Z,18.69
2018-09-14T12:11:46.339Z,18.91
2018-09-14T12:14:14.936Z,19.02
2018-09-14T12:16:43.264Z,18.98
2018-09-14T12:19:12.537Z,18.77
2018-09-14T12:21:40.892Z,18.95
2018-09-14T12:24:09.757Z,19.04
2018-09-14T12:26:41.416Z,18.79
2018-09-14T12:29:09.778Z,18.81
2018-09-14T12:31:38.517Z,19.18
2018-09-14T12:34:07.348Z,19.41
2018-09-14T12:36:35.736Z,19.45
2018-09-14T12:39:06.818Z,19.53
2018-09-14T12:41:35.396Z,19.58
2018-09-14T12:44:03.825Z,19.23
2018-09-14T12:46:32.197Z,19.05
2018-09-14T12:51:34.436Z,19.27
2018-09-14T12:54:02.708Z,19.54
2018-09-14T12:56:39.729Z,19.50
2018-09-14T12:59:08.376Z,19.42
2018-09-14T13:01:36.728Z,19.54
2018-09-14T13:04:06.769Z,19.67
2018-09-14T13:06:35.248Z,19.68
2018-09-14T13:09:04.104Z,19.44
2018-09-14T13:11:32.996Z,19.38
2018-09-14T13:14:01.576Z,19.37
2018-09-14T13:16:29.949Z,19.44
2018-09-14T13:18:58.477Z,19.59
2018-09-14T13:21:27.676Z,19.72
2018-09-14T13:23:57.036Z,19.60
2018-09-14T13:26:26.729Z,19.62
2018-09-14T13:28:56.128Z,19.76
2018-09-14T13:31:24.371Z,19.72
2018-09-14T13:33:52.628Z,19.70
2018-09-14T13:36:20.803Z,19.65
2018-09-14T13:38:49.311Z,19.41
2018-09-14T13:41:17.774Z,19.33
2018-09-14T13:43:45.891Z,19.27
2018-09-14T13:46:14.223Z,19.51
2018-09-14T13:48:43.583Z,19.59
2018-09-14T13:51:11.811Z,19.64
2018-09-14T13:53:40.755Z,19.56
2018-09-14T13:56:08.971Z,19.67
2018-09-14T13:58:38.290Z,19.96
2018-09-14T14:01:06.889Z,19.97
2018-09-14T14:03:37.224Z,20.13
2018-09-14T14:06:06.771Z,20.20
2018-09-14T14:08:36.432Z,19.86
2018-09-14T14:11:06.303Z,19.66
2018-09-14T14:13:34.631Z,19.74
2018-09-14T14:16:03.687Z,19.62
2018-09-14T14:18:31.913Z,19.32
2018-09-14T14:21:00.728Z,19.07
2018-09-14T14:23:29.051Z,19.13
2018-09-14T14:25:57.359Z,19.32
2018-09-14T14:28:25.687Z,19.40
2018-09-14T14:30:54.411Z,19.61
2018-09-14T14:33:23.593Z,19.49
2018-09-14T14:35:53.282Z,19.22
2018-09-14T14:38:21.644Z,19.14
2018-09-14T14:40:49.943Z,19.09
2018-09-14T14:43:18.163Z,19.06
2018-09-14T14:45:46.423Z,19.15
2018-09-14T14:48:14.612Z,19.10
2018-09-14T14:50:43.060Z,19.23
2018-09-14T14:53:11.336Z,19.39
2018-09-14T14:55:39.604Z,19.57
2018-09-14T14:58:10.856Z,19.64
2018-09-14T15:00:39.140Z,19.50
2018-09-14T15:03:09.764Z,19.05
2018-09-14T15:05:38.024Z,19.16
2018-09-14T15:08:06.464Z,19.24
2018-09-14T15:10:34.907Z,19.16
2018-09-14T15:13:03.696Z,19.20
2018-09-14T15:15:32.336Z,19.22
2018-09-14T15:18:00.623Z,19.13
2018-09-14T15:20:28.944Z,19.18
2018-09-14T15:22:57.464Z,19.09
2018-09-14T15:25:25.764Z,19.02
2018-09-14T15:27:56.364Z,18.99
2018-09-14T15:30:24.784Z,19.06
2018-09-14T15:32:53.344Z,19.03
2018-09-14T15:35:21.969Z,19.24
2018-09-14T15:37:50.384Z,19.36
2018-09-14T15:40:18.692Z,19.40
2018-09-14T15:42:46.799Z,19.57
2018-09-14T15:45:15.016Z,19.51
2018-09-14T15:47:43.276Z,19.33
2018-09-14T15:50:11.436Z,19.34
2018-09-14T15:52:39.621Z,19.20
2018-09-14T15:55:08.001Z,19.06
2018-09-14T15:57:36.210Z,18.80
2018-09-14T16:00:08.929Z,18.92
2018-09-14T16:16:17.581Z,18.30
2018-09-14T16:18:45.709Z,18.31
2018-09-14T16:21:13.961Z,18.19
2018-09-14T16:23:42.193Z,18.24
2018-09-14T16:26:10.564Z,18.19
2018-09-14T16:28:38.561Z,18.24
2018-09-14T16:31:07.211Z,18.15
2018-09-14T16:33:35.494Z,18.15
2018-09-14T16:36:03.671Z,18.10
2018-09-14T16:38:31.785Z,18.21
2018-09-14T16:40:59.956Z,18.06
2018-09-14T16:43:28.111Z,18.00
2018-09-14T16:45:56.332Z,17.95
2018-09-14T16:48:24.542Z,17.86
2018-09-14T16:50:52.816Z,17.96
2018-09-14T16:53:21.042Z,18.03
2018-09-14T16:55:49.302Z,18.05
2018-09-14T16:58:17.536Z,17.85
2018-09-14T17:00:45.665Z,17.84
2018-09-14T17:03:13.803Z,17.80
2018-09-14T17:05:42.109Z,17.72
2018-09-14T17:08:10.333Z,17.63
2018-09-14T17:10:38.533Z,17.61
2018-09-14T17:13:06.936Z,17.42
2018-09-14T17:15:35.216Z,17.27
2018-09-14T17:18:04.495Z,17.13
2018-09-14T17:20:32.912Z,17.00
2018-09-14T17:23:01.075Z,16.86
2018-09-14T17:25:29.415Z,16.73
2018-09-14T17:27:57.587Z,16.72
2018-09-14T17:30:26.646Z,16.82
2018-09-14T17:32:54.884Z,16.77
2018-09-14T17:35:23.150Z,16.80
2018-09-14T17:37:51.481Z,16.56
2018-09-14T17:40:19.552Z,16.40
2018-09-14T17:42:47.727Z,16.18
2018-09-14T17:45:16.873Z,16.06
2018-09-14T17:47:45.246Z,15.90
2018-09-14T17:50:13.480Z,15.93
2018-09-14T17:52:41.970Z,15.95
2018-09-14T17:55:10.106Z,15.93
2018-09-14T17:57:38.213Z,15.79
2018-09-14T18:00:06.711Z,15.62
2018-09-14T18:02:35.209Z,15.45
2018-09-14T18:05:03.621Z,15.31
2018-09-14T18:07:32.109Z,15.20
2018-09-14T18:10:00.581Z,15.06
2018-09-14T18:12:29.786Z,14.92
2018-09-14T18:14:58.225Z,14.78
2018-09-14T18:17:27.066Z,14.69
2018-09-14T18:19:55.501Z,14.65
2018-09-14T18:22:23.752Z,14.65
2018-09-14T18:24:51.990Z,14.56
2018-09-14T18:27:20.130Z,14.56
2018-09-14T18:29:48.321Z,14.54
2018-09-14T18:32:16.565Z,14.46
2018-09-14T18:34:44.732Z,14.59
2018-09-14T18:37:12.943Z,14.62
2018-09-14T18:39:41.088Z,14.63
2018-09-14T18:42:09.405Z,14.68
2018-09-14T18:44:37.673Z,14.87
2018-09-14T18:47:06.462Z,14.96
2018-09-14T18:49:34.786Z,15.03
2018-09-14T18:52:02.975Z,15.17
2018-09-14T18:54:32.165Z,15.25
2018-09-14T18:57:00.380Z,15.24
2018-09-14T18:59:29.562Z,15.38
2018-09-14T19:01:57.707Z,15.42
2018-09-14T19:04:26.841Z,15.51
2018-09-14T19:06:54.913Z,15.47
2018-09-14T19:09:23.116Z,15.54
2018-09-14T19:11:51.309Z,15.63
2018-09-14T19:14:19.510Z,15.57
2018-09-14T19:16:47.662Z,15.51
2018-09-14T19:19:16.241Z,15.45
2018-09-14T19:21:44.424Z,15.40
2018-09-14T19:24:12.670Z,15.34
2018-09-14T19:26:40.850Z,15.37
2018-09-14T19:29:09.130Z,15.21
2018-09-14T19:31:37.371Z,15.20
2018-09-14T19:34:05.724Z,15.18
2018-09-14T19:36:34.685Z,15.13
2018-09-14T19:39:03.241Z,15.08
2018-09-14T19:41:32.088Z,14.97
2018-09-14T19:44:00.260Z,15.13
2018-09-14T19:46:28.471Z,15.03
2018-09-14T19:48:56.666Z,15.12
2018-09-14T19:51:24.822Z,15.13
2018-09-14T19:53:53.012Z,15.02
2018-09-14T19:56:21.207Z,14.90
2018-09-14T19:58:50.618Z,14.95
2018-09-14T20:01:18.738Z,14.85
2018-09-14T20:03:46.969Z,14.98
2018-09-14T20:06:15.346Z,14.99
2018-09-14T20:08:43.694Z,14.97
2018-09-14T20:11:12.113Z,14.93
2018-09-14T20:13:40.391Z,14.85
2018-09-14T20:16:08.634Z,14.92
2018-09-14T20:18:37.847Z,14.91
2018-09-14T21:34:32.715Z,14.44
2018-09-14T21:37:00.965Z,14.58
2018-09-14T21:39:30.881Z,14.59
2018-09-14T21:41:59.571Z,14.53
2018-09-14T21:44:28.670Z,14.50
2018-09-14T21:46:57.156Z,14.42
2018-09-14T21:49:25.240Z,14.44
2018-09-14T21:51:55.323Z,14.37
2018-09-14T21:54:23.504Z,14.31
2018-09-14T21:56:52.104Z,14.21
2018-09-14T21:59:20.216Z,14.18
2018-09-14T22:01:48.950Z,14.18
2018-09-14T22:04:17.189Z,14.18
2018-09-14T22:06:48.151Z,14.12
2018-09-14T22:09:16.940Z,14.16
2018-09-14T22:11:45.280Z,14.22
2018-09-14T22:14:13.260Z,14.27
2018-09-14T22:16:42.492Z,14.31
2018-09-14T22:19:10.517Z,14.43
2018-09-14T22:21:38.972Z,14.42
2018-09-14T22:24:07.081Z,14.35
2018-09-14T22:26:35.162Z,14.33
2018-09-14T22:29:04.556Z,14.47
2018-09-14T22:31:33.041Z,14.42
2018-09-14T22:34:01.168Z,14.35
2018-09-14T22:36:29.407Z,14.55
2018-09-14T22:38:57.386Z,14.57
2018-09-14T22:41:28.375Z,14.58
2018-09-14T22:43:56.530Z,14.52
2018-09-14T22:46:24.812Z,14.47
2018-09-14T22:48:54.141Z,14.61
2018-09-14T22:51:22.267Z,14.50
2018-09-14T22:53:50.326Z,14.55
2018-09-14T22:56:20.401Z,14.42
2018-09-14T22:58:48.940Z,14.41
2018-09-14T23:01:18.695Z,14.54
2018-09-14T23:03:48.416Z,14.58
2018-09-14T23:06:17.695Z,14.55
2018-09-14T23:08:47.160Z,14.43
2018-09-14T23:11:15.385Z,14.38
2018-09-14T23:13:44.712Z,14.39
2018-09-14T23:16:13.695Z,14.32
2018-09-14T23:18:42.087Z,14.46
2018-09-14T23:21:10.295Z,14.41
2018-09-14T23:23:38.920Z,14.27
2018-09-14T23:26:10.633Z,14.20
2018-09-14T23:28:38.947Z,14.13
2018-09-14T23:31:07.150Z,13.92
2018-09-14T23:33:36.391Z,13.97
2018-09-14T23:36:04.578Z,13.83
2018-09-14T23:38:33.029Z,13.80
2018-09-14T23:41:01.300Z,13.76
2018-09-14T23:43:29.524Z,13.71
2018-09-14T23:45:57.913Z,13.63
2018-09-14T23:48:26.014Z,13.63
2018-09-14T23:50:54.254Z,13.58
2018-09-14T23:53:22.221Z,13.47
2018-09-14T23:55:50.611Z,13.54
2018-09-14T23:58:18.690Z,13.51
